createdAt,value
2017-02-17T00:00:33.614Z,0
2017-02-17T00:01:42.624Z,0
2017-02-17T00:02:51.650Z,0
2017-02-17T00:04:00.656Z,0
2017-02-17T00:05:09.685Z,0
2017-02-17T00:06:18.716Z,0
2017-02-17T00:07:27.734Z,0
2017-02-17T00:08:36.767Z,0
2017-02-17T00:09:45.777Z,0
2017-02-17T00:10:54.807Z,0
2017-02-17T00:12:03.852Z,0
2017-02-17T00:13:12.883Z,0
2017-02-17T00:14:21.949Z,0
2017-02-17T00:15:30.985Z,0
2017-02-17T00:16:39.987Z,0
2017-02-17T00:17:48.999Z,0
2017-02-17T00:18:58.443Z,0
2017-02-17T00:20:07.453Z,0
2017-02-17T00:21:16.475Z,0
2017-02-17T00:22:25.516Z,0
2017-02-17T00:23:34.555Z,0
2017-02-17T00:24:43.560Z,0
2017-02-17T00:25:52.584Z,0
2017-02-17T00:27:01.602Z,0
2017-02-17T00:28:10.608Z,0
2017-02-17T00:29:21.066Z,0
2017-02-17T00:30:30.114Z,0
2017-02-17T00:31:39.173Z,0
2017-02-17T00:32:48.226Z,0
2017-02-17T00:33:57.287Z,0
2017-02-17T00:35:06.346Z,0
2017-02-17T00:36:15.396Z,0
2017-02-17T00:37:24.455Z,0
2017-02-17T00:38:33.527Z,0
2017-02-17T00:39:42.592Z,0
2017-02-17T00:40:51.633Z,0
2017-02-17T00:42:00.830Z,0
2017-02-17T00:43:09.871Z,0
2017-02-17T00:44:19.347Z,0
2017-02-17T00:45:28.392Z,0
2017-02-17T00:46:37.397Z,0
2017-02-17T00:47:46.400Z,0
2017-02-17T00:48:55.403Z,0
2017-02-17T00:50:04.428Z,0
2017-02-17T00:51:13.462Z,0
2017-02-17T00:52:22.471Z,0
2017-02-17T00:53:31.488Z,0
2017-02-17T00:54:40.487Z,0
2017-02-17T00:55:49.524Z,0
2017-02-17T00:56:58.529Z,0
2017-02-17T00:58:07.563Z,0
2017-02-17T00:59:16.595Z,0
2017-02-17T01:00:25.616Z,0
2017-02-17T01:01:34.620Z,0
2017-02-17T01:02:43.636Z,0
2017-02-17T01:03:52.660Z,0
2017-02-17T01:05:01.673Z,0
2017-02-17T01:06:10.690Z,0
2017-02-17T01:07:19.727Z,0
2017-02-17T01:08:28.790Z,0
2017-02-17T01:09:37.812Z,0
2017-02-17T01:10:46.814Z,0
2017-02-17T01:11:55.836Z,0
2017-02-17T01:13:05.271Z,0
2017-02-17T01:14:15.122Z,0
2017-02-17T01:15:24.156Z,0
2017-02-17T01:16:33.189Z,0
2017-02-17T01:17:42.207Z,0
2017-02-17T01:18:51.241Z,0
2017-02-17T01:20:00.259Z,0
2017-02-17T01:21:09.276Z,0
2017-02-17T01:22:18.277Z,0
2017-02-17T01:23:27.307Z,0
2017-02-17T01:24:36.326Z,0
2017-02-17T01:25:45.343Z,0
2017-02-17T01:26:54.358Z,0
2017-02-17T01:28:03.369Z,0
2017-02-17T01:29:12.398Z,0
2017-02-17T01:30:21.399Z,0
2017-02-17T01:31:30.444Z,0
2017-02-17T01:32:39.453Z,0
2017-02-17T01:33:48.453Z,0
2017-02-17T01:34:57.484Z,0
2017-02-17T01:36:06.525Z,0
2017-02-17T01:37:15.561Z,0
2017-02-17T01:38:24.577Z,0
2017-02-17T01:39:33.615Z,0
2017-02-17T01:40:42.635Z,0
2017-02-17T01:41:51.661Z,0
2017-02-17T01:43:00.689Z,0
2017-02-17T01:44:09.736Z,0
2017-02-17T01:45:18.749Z,0
2017-02-17T01:46:27.773Z,0
2017-02-17T01:47:36.814Z,0
2017-02-17T01:48:45.829Z,0
2017-02-17T01:49:54.835Z,0
2017-02-17T01:51:03.840Z,0
2017-02-17T01:52:12.865Z,0
2017-02-17T01:53:21.894Z,0
2017-02-17T01:54:30.902Z,0
2017-02-17T01:55:39.923Z,0
2017-02-17T01:56:48.945Z,0
2017-02-17T01:57:57.948Z,0
2017-02-17T01:59:06.964Z,0
2017-02-17T02:00:15.974Z,0
2017-02-17T02:01:25.008Z,0
2017-02-17T02:02:34.033Z,0
2017-02-17T02:03:43.049Z,0
2017-02-17T02:04:52.050Z,0
2017-02-17T02:06:01.085Z,0
2017-02-17T02:07:10.087Z,0
2017-02-17T02:08:19.110Z,0
2017-02-17T02:09:28.135Z,0
2017-02-17T02:10:37.172Z,0
2017-02-17T02:11:46.181Z,0
2017-02-17T02:12:55.612Z,0
2017-02-17T02:14:04.638Z,0
2017-02-17T02:15:13.639Z,0
2017-02-17T02:16:22.656Z,0
2017-02-17T02:17:31.683Z,0
2017-02-17T02:18:40.686Z,0
2017-02-17T02:19:50.123Z,0
2017-02-17T02:20:59.541Z,0
2017-02-17T02:22:08.545Z,0
2017-02-17T02:23:17.552Z,0
2017-02-17T02:24:26.567Z,0
2017-02-17T02:25:35.564Z,0
2017-02-17T02:26:44.596Z,0
2017-02-17T02:27:53.611Z,0
2017-02-17T02:29:02.625Z,0
2017-02-17T02:30:11.663Z,0
2017-02-17T02:31:20.670Z,0
2017-02-17T02:32:29.686Z,0
2017-02-17T02:33:39.124Z,0
2017-02-17T02:34:48.145Z,0
2017-02-17T02:35:57.150Z,0
2017-02-17T02:37:06.166Z,0
2017-02-17T02:38:15.174Z,0
2017-02-17T02:39:24.177Z,0
2017-02-17T02:40:33.197Z,0
2017-02-17T02:41:42.240Z,0
2017-02-17T02:42:51.237Z,0
2017-02-17T02:44:00.257Z,0
2017-02-17T02:45:09.676Z,0
2017-02-17T02:46:18.687Z,0
2017-02-17T02:47:27.689Z,0
2017-02-17T02:48:36.716Z,0
2017-02-17T02:49:45.728Z,0
2017-02-17T02:50:54.768Z,0
2017-02-17T02:52:04.205Z,0
2017-02-17T02:53:13.210Z,0
2017-02-17T02:54:22.226Z,0
2017-02-17T02:55:31.233Z,0
2017-02-17T02:56:40.257Z,0
2017-02-17T02:57:49.287Z,0
2017-02-17T02:58:58.328Z,0
2017-02-17T03:00:07.326Z,0
2017-02-17T03:01:16.347Z,0
2017-02-17T03:02:25.353Z,0
2017-02-17T03:03:34.371Z,0
2017-02-17T03:04:43.399Z,0
2017-02-17T03:05:52.426Z,0
2017-02-17T03:07:01.440Z,0
2017-02-17T03:08:10.441Z,0
2017-02-17T03:09:19.463Z,0
2017-02-17T03:10:31.530Z,0
2017-02-17T03:11:40.993Z,0
2017-02-17T03:12:50.054Z,0
2017-02-17T03:13:59.094Z,0
2017-02-17T03:15:08.164Z,0
2017-02-17T03:16:17.221Z,0
2017-02-17T03:17:26.263Z,0
2017-02-17T03:18:35.314Z,0
2017-02-17T03:19:44.344Z,0
2017-02-17T03:20:53.391Z,0
2017-02-17T03:22:02.437Z,0
2017-02-17T03:23:11.481Z,0
2017-02-17T03:24:20.540Z,0
2017-02-17T03:25:29.588Z,0
2017-02-17T03:26:38.614Z,0
2017-02-17T03:27:48.035Z,0
2017-02-17T03:28:57.043Z,0
2017-02-17T03:30:06.477Z,0
2017-02-17T03:31:15.495Z,0
2017-02-17T03:32:24.507Z,0
2017-02-17T03:33:33.502Z,0
2017-02-17T03:34:42.524Z,0
2017-02-17T03:35:51.960Z,0
2017-02-17T03:37:00.980Z,0
2017-02-17T03:38:09.996Z,0
2017-02-17T03:39:18.994Z,0
2017-02-17T03:40:28.409Z,0
2017-02-17T03:41:37.435Z,0
2017-02-17T03:42:46.437Z,0
2017-02-17T03:43:55.467Z,0
2017-02-17T03:45:04.474Z,0
2017-02-17T03:46:13.492Z,0
2017-02-17T03:47:22.923Z,0
2017-02-17T03:48:31.941Z,0
2017-02-17T03:49:40.947Z,0
2017-02-17T03:50:49.964Z,0
2017-02-17T03:51:59.021Z,0
2017-02-17T03:53:08.034Z,0
2017-02-17T03:54:17.045Z,0
2017-02-17T03:55:26.067Z,0
2017-02-17T03:56:35.084Z,0
2017-02-17T03:57:44.093Z,0
2017-02-17T03:58:53.102Z,0
2017-02-17T04:00:02.105Z,0
2017-02-17T04:01:11.527Z,0
2017-02-17T04:02:20.544Z,0
2017-02-17T04:03:29.567Z,0
2017-02-17T04:04:39.252Z,0
2017-02-17T04:05:48.274Z,0
2017-02-17T04:06:57.717Z,0
2017-02-17T04:08:06.743Z,0
2017-02-17T04:09:15.776Z,0
2017-02-17T04:10:24.804Z,0
2017-02-17T04:11:34.279Z,0
2017-02-17T04:12:43.322Z,0
2017-02-17T04:13:52.755Z,0
2017-02-17T04:15:01.777Z,0
2017-02-17T04:16:11.194Z,0
2017-02-17T04:17:20.216Z,0
2017-02-17T04:18:29.659Z,0
2017-02-17T04:19:38.664Z,0
2017-02-17T04:20:47.667Z,0
2017-02-17T04:21:56.675Z,0
2017-02-17T04:23:05.677Z,0
2017-02-17T04:24:14.697Z,0
2017-02-17T04:25:23.739Z,0
2017-02-17T04:26:32.746Z,0
2017-02-17T04:27:41.777Z,0
2017-02-17T04:28:50.792Z,0
2017-02-17T04:29:59.817Z,0
2017-02-17T04:31:09.249Z,0
2017-02-17T04:32:18.261Z,0
2017-02-17T04:33:27.705Z,0
2017-02-17T04:34:36.741Z,0
2017-02-17T04:35:45.752Z,0
2017-02-17T04:36:55.188Z,0
2017-02-17T04:38:04.233Z,0
2017-02-17T04:39:13.254Z,0
2017-02-17T04:40:22.673Z,0
2017-02-17T04:41:31.693Z,0
2017-02-17T04:42:40.712Z,0
2017-02-17T04:43:49.725Z,0
2017-02-17T04:44:58.749Z,0
2017-02-17T04:46:07.748Z,0
2017-02-17T04:47:16.756Z,0
2017-02-17T04:48:25.779Z,0
2017-02-17T04:49:34.808Z,0
2017-02-17T04:50:44.223Z,0
2017-02-17T04:51:53.232Z,0
2017-02-17T04:53:02.243Z,0
2017-02-17T04:54:11.275Z,0
2017-02-17T04:55:20.286Z,0
2017-02-17T04:56:29.319Z,0
2017-02-17T04:57:38.324Z,0
2017-02-17T04:58:47.334Z,0
2017-02-17T04:59:56.339Z,0
2017-02-17T05:01:05.373Z,0
2017-02-17T05:02:14.396Z,0
2017-02-17T05:03:23.427Z,0
2017-02-17T05:04:32.444Z,0
2017-02-17T05:05:41.450Z,0
2017-02-17T05:06:50.478Z,0
2017-02-17T05:07:59.922Z,0
2017-02-17T05:09:08.941Z,0
2017-02-17T05:10:17.954Z,0
2017-02-17T05:11:26.975Z,0
2017-02-17T05:12:36.005Z,0
2017-02-17T05:13:45.854Z,0
2017-02-17T05:14:54.877Z,0
2017-02-17T05:16:03.927Z,0
2017-02-17T05:17:12.927Z,0
2017-02-17T05:18:21.954Z,0
2017-02-17T05:19:30.962Z,0
2017-02-17T05:20:40.401Z,0
2017-02-17T05:21:49.434Z,0
2017-02-17T05:22:58.456Z,0
2017-02-17T05:24:07.459Z,0
2017-02-17T05:25:16.486Z,0
2017-02-17T05:26:25.501Z,0
2017-02-17T05:27:34.530Z,0
2017-02-17T05:28:43.567Z,0
2017-02-17T05:29:52.593Z,0
2017-02-17T05:31:01.625Z,0
2017-02-17T05:32:11.057Z,0
2017-02-17T05:33:20.583Z,0
2017-02-17T05:34:29.916Z,0
2017-02-17T05:35:38.930Z,0
2017-02-17T05:36:47.936Z,0
2017-02-17T05:37:56.973Z,0
2017-02-17T05:39:05.992Z,0
2017-02-17T05:40:15.005Z,0
2017-02-17T05:41:24.041Z,0
2017-02-17T05:42:33.095Z,0
2017-02-17T05:43:42.101Z,0
2017-02-17T05:44:51.112Z,0
2017-02-17T05:46:00.138Z,0
2017-02-17T05:47:09.157Z,0
2017-02-17T05:48:18.168Z,0
2017-02-17T05:49:27.185Z,0
2017-02-17T05:50:36.203Z,0
2017-02-17T05:51:45.207Z,0
2017-02-17T05:52:54.234Z,0
2017-02-17T05:54:03.242Z,0
2017-02-17T05:55:12.249Z,0
2017-02-17T05:56:21.304Z,0
2017-02-17T05:57:30.321Z,0
2017-02-17T05:58:39.340Z,0
2017-02-17T05:59:48.353Z,0
2017-02-17T06:00:57.360Z,4
2017-02-17T06:02:06.384Z,4
2017-02-17T06:03:15.420Z,4
2017-02-17T06:04:24.420Z,4
2017-02-17T06:05:33.439Z,4
2017-02-17T06:06:42.887Z,4
2017-02-17T06:07:51.898Z,8
2017-02-17T06:09:00.917Z,4
2017-02-17T06:10:09.936Z,8
2017-02-17T06:11:19.383Z,8
2017-02-17T06:12:28.415Z,8
2017-02-17T06:13:37.425Z,12
2017-02-17T06:14:46.455Z,12
2017-02-17T06:15:55.471Z,12
2017-02-17T06:17:04.502Z,16
2017-02-17T06:18:13.933Z,16
2017-02-17T06:19:22.954Z,16
2017-02-17T06:20:31.963Z,24
2017-02-17T06:21:40.990Z,24
2017-02-17T06:22:50.434Z,24
2017-02-17T06:23:59.443Z,28
2017-02-17T06:25:08.492Z,32
2017-02-17T06:26:17.499Z,36
2017-02-17T06:27:26.525Z,40
2017-02-17T06:28:35.528Z,48
2017-02-17T06:29:44.537Z,52
2017-02-17T06:30:53.536Z,56
2017-02-17T06:32:02.548Z,60
2017-02-17T06:33:11.558Z,64
2017-02-17T06:34:20.981Z,72
2017-02-17T06:35:30.013Z,72
2017-02-17T06:36:39.078Z,80
2017-02-17T06:37:48.116Z,84
2017-02-17T06:38:57.127Z,84
2017-02-17T06:40:06.170Z,84
2017-02-17T06:41:15.188Z,84
2017-02-17T06:42:24.199Z,96
2017-02-17T06:43:33.221Z,104
2017-02-17T06:44:42.257Z,116
2017-02-17T06:45:51.266Z,128
2017-02-17T06:47:00.710Z,136
2017-02-17T06:48:09.717Z,144
2017-02-17T06:49:18.730Z,152
2017-02-17T06:50:27.766Z,156
2017-02-17T06:51:37.212Z,160
2017-02-17T06:52:46.225Z,172
2017-02-17T06:53:56.079Z,180
2017-02-17T06:55:05.086Z,176
2017-02-17T06:56:14.090Z,180
2017-02-17T06:57:23.139Z,188
2017-02-17T06:58:32.178Z,200
2017-02-17T06:59:41.182Z,224
2017-02-17T07:00:50.192Z,240
2017-02-17T07:01:59.203Z,268
2017-02-17T07:03:08.209Z,308
2017-02-17T07:04:17.227Z,308
2017-02-17T07:05:26.249Z,252
2017-02-17T07:06:35.263Z,236
2017-02-17T07:07:44.277Z,296
2017-02-17T07:08:53.301Z,296
2017-02-17T07:10:02.318Z,312
2017-02-17T07:11:11.340Z,308
2017-02-17T07:12:20.346Z,236
2017-02-17T07:13:29.345Z,160
2017-02-17T07:14:38.791Z,112
2017-02-17T07:15:48.221Z,96
2017-02-17T07:16:57.218Z,92
2017-02-17T07:18:06.651Z,104
2017-02-17T07:19:15.662Z,104
2017-02-17T07:20:24.673Z,108
2017-02-17T07:21:33.670Z,116
2017-02-17T07:22:42.691Z,120
2017-02-17T07:23:51.722Z,112
2017-02-17T07:25:01.137Z,112
2017-02-17T07:26:10.151Z,120
2017-02-17T07:27:19.151Z,132
2017-02-17T07:28:28.179Z,136
2017-02-17T07:29:37.207Z,148
2017-02-17T07:30:46.236Z,144
2017-02-17T07:31:55.287Z,128
2017-02-17T07:33:04.306Z,144
2017-02-17T07:34:13.318Z,172
2017-02-17T07:35:22.337Z,188
2017-02-17T07:36:31.467Z,220
2017-02-17T07:37:40.474Z,244
2017-02-17T07:38:49.484Z,260
2017-02-17T07:39:58.524Z,284
2017-02-17T07:41:07.533Z,304
2017-02-17T07:42:16.607Z,328
2017-02-17T07:43:25.617Z,356
2017-02-17T07:44:35.082Z,376
2017-02-17T07:45:44.085Z,388
2017-02-17T07:46:53.097Z,388
2017-02-17T07:48:02.142Z,380
2017-02-17T07:49:11.171Z,392
2017-02-17T07:50:20.198Z,392
2017-02-17T07:51:29.206Z,384
2017-02-17T07:52:38.210Z,380
2017-02-17T07:53:47.650Z,376
2017-02-17T07:54:56.655Z,352
2017-02-17T07:56:05.674Z,272
2017-02-17T07:57:14.706Z,220
2017-02-17T07:58:23.725Z,244
2017-02-17T07:59:32.756Z,256
2017-02-17T08:00:41.786Z,304
2017-02-17T08:01:50.804Z,332
2017-02-17T08:02:59.829Z,312
2017-02-17T08:04:08.854Z,308
2017-02-17T08:05:17.932Z,316
2017-02-17T08:06:26.939Z,332
2017-02-17T08:07:35.979Z,304
2017-02-17T08:08:45.004Z,284
2017-02-17T08:09:54.442Z,308
2017-02-17T08:11:03.496Z,336
2017-02-17T08:12:12.510Z,324
2017-02-17T08:13:21.508Z,356
2017-02-17T08:14:30.527Z,388
2017-02-17T08:15:39.547Z,440
2017-02-17T08:16:48.561Z,436
2017-02-17T08:17:57.608Z,392
2017-02-17T08:19:06.621Z,344
2017-02-17T08:20:15.651Z,332
2017-02-17T08:21:24.667Z,328
2017-02-17T08:22:34.117Z,304
2017-02-17T08:23:43.559Z,292
2017-02-17T08:24:52.577Z,284
2017-02-17T08:26:01.618Z,308
2017-02-17T08:27:10.637Z,276
2017-02-17T08:28:19.652Z,300
2017-02-17T08:29:28.668Z,372
2017-02-17T08:30:37.703Z,352
2017-02-17T08:31:46.713Z,456
2017-02-17T08:32:55.730Z,440
2017-02-17T08:34:04.757Z,500
2017-02-17T08:35:13.783Z,492
2017-02-17T08:36:22.813Z,520
2017-02-17T08:37:32.265Z,556
2017-02-17T08:38:41.282Z,572
2017-02-17T08:39:50.292Z,640
2017-02-17T08:40:59.321Z,676
2017-02-17T08:42:08.371Z,608
2017-02-17T08:43:17.380Z,576
2017-02-17T08:44:26.400Z,572
2017-02-17T08:45:35.422Z,544
2017-02-17T08:46:44.434Z,620
2017-02-17T08:47:53.462Z,656
2017-02-17T08:49:02.480Z,692
2017-02-17T08:50:11.503Z,692
2017-02-17T08:51:20.516Z,636
2017-02-17T08:52:29.532Z,580
2017-02-17T08:53:38.543Z,648
2017-02-17T08:54:47.975Z,744
2017-02-17T08:55:57.029Z,800
2017-02-17T08:57:06.020Z,820
2017-02-17T08:58:15.023Z,768
2017-02-17T08:59:24.039Z,892
2017-02-17T09:00:33.066Z,900
2017-02-17T09:01:42.079Z,780
2017-02-17T09:02:51.101Z,680
2017-02-17T09:04:00.134Z,612
2017-02-17T09:05:09.155Z,564
2017-02-17T09:06:18.184Z,516
2017-02-17T09:07:27.203Z,528
2017-02-17T09:08:36.220Z,500
2017-02-17T09:09:45.253Z,488
2017-02-17T09:10:54.269Z,468
2017-02-17T09:12:03.271Z,492
2017-02-17T09:13:13.126Z,512
2017-02-17T09:14:22.597Z,580
2017-02-17T09:15:31.649Z,580
2017-02-17T09:16:40.652Z,540
2017-02-17T09:17:49.690Z,592
2017-02-17T09:18:58.718Z,584
2017-02-17T09:20:07.736Z,580
2017-02-17T09:21:16.743Z,628
2017-02-17T09:22:25.787Z,640
2017-02-17T09:23:35.229Z,664
2017-02-17T09:24:44.228Z,684
2017-02-17T09:25:53.239Z,684
2017-02-17T09:27:02.265Z,792
2017-02-17T09:28:11.266Z,800
2017-02-17T09:29:20.278Z,828
2017-02-17T09:30:29.294Z,820
2017-02-17T09:31:38.303Z,848
2017-02-17T09:32:47.324Z,812
2017-02-17T09:33:56.360Z,784
2017-02-17T09:35:05.808Z,764
2017-02-17T09:36:14.819Z,744
2017-02-17T09:37:23.827Z,836
2017-02-17T09:38:32.836Z,892
2017-02-17T09:39:42.264Z,732
2017-02-17T09:40:51.285Z,756
2017-02-17T09:42:00.312Z,804
2017-02-17T09:43:09.346Z,764
2017-02-17T09:44:18.373Z,736
2017-02-17T09:45:27.415Z,792
2017-02-17T09:46:36.419Z,820
2017-02-17T09:47:45.440Z,668
2017-02-17T09:48:54.461Z,784
2017-02-17T09:50:03.886Z,724
2017-02-17T09:51:12.924Z,692
2017-02-17T09:52:21.942Z,808
2017-02-17T09:53:30.952Z,820
2017-02-17T09:54:39.969Z,888
2017-02-17T09:55:49.015Z,820
2017-02-17T09:56:58.022Z,776
2017-02-17T09:58:07.052Z,908
2017-02-17T09:59:16.055Z,920
2017-02-17T10:00:25.059Z,840
2017-02-17T10:01:34.076Z,884
2017-02-17T10:02:43.097Z,968
2017-02-17T10:03:52.121Z,996
2017-02-17T10:05:01.138Z,840
2017-02-17T10:06:10.208Z,856
2017-02-17T10:07:19.218Z,748
2017-02-17T10:08:28.237Z,692
2017-02-17T10:09:37.263Z,752
2017-02-17T10:10:46.275Z,804
2017-02-17T10:11:55.294Z,820
2017-02-17T10:13:04.319Z,736
2017-02-17T10:14:13.351Z,608
2017-02-17T10:15:22.816Z,552
2017-02-17T10:16:31.831Z,452
2017-02-17T10:17:40.848Z,468
2017-02-17T10:18:49.871Z,412
2017-02-17T10:19:58.945Z,416
2017-02-17T10:21:07.949Z,380
2017-02-17T10:22:17.022Z,352
2017-02-17T10:23:26.047Z,372
2017-02-17T10:24:35.064Z,348
2017-02-17T10:25:44.067Z,396
2017-02-17T10:26:53.101Z,468
2017-02-17T10:28:02.119Z,520
2017-02-17T10:29:11.159Z,584
2017-02-17T10:30:20.188Z,672
2017-02-17T10:31:29.201Z,796
2017-02-17T10:32:38.213Z,672
2017-02-17T10:33:47.244Z,660
2017-02-17T10:34:56.678Z,548
2017-02-17T10:36:05.711Z,516
2017-02-17T10:37:15.177Z,560
2017-02-17T10:38:24.205Z,560
2017-02-17T10:39:33.272Z,432
2017-02-17T10:40:42.306Z,380
2017-02-17T10:41:51.314Z,384
2017-02-17T10:43:00.341Z,352
2017-02-17T10:44:09.370Z,368
2017-02-17T10:45:18.392Z,392
2017-02-17T10:46:27.410Z,408
2017-02-17T10:47:36.440Z,448
2017-02-17T10:48:45.465Z,428
2017-02-17T10:49:54.511Z,376
2017-02-17T10:51:03.532Z,352
2017-02-17T10:52:12.557Z,352
2017-02-17T10:53:21.569Z,324
2017-02-17T10:54:30.583Z,264
2017-02-17T10:55:39.595Z,248
2017-02-17T10:56:48.612Z,256
2017-02-17T10:57:57.639Z,276
2017-02-17T10:59:06.676Z,296
2017-02-17T11:00:15.713Z,340
2017-02-17T11:01:25.181Z,364
2017-02-17T11:02:34.194Z,464
2017-02-17T11:03:43.210Z,504
2017-02-17T11:04:52.236Z,604
2017-02-17T11:06:01.236Z,740
2017-02-17T11:07:10.264Z,760
2017-02-17T11:08:19.287Z,560
2017-02-17T11:09:28.297Z,548
2017-02-17T11:10:37.315Z,472
2017-02-17T11:11:46.754Z,432
2017-02-17T11:12:55.763Z,408
2017-02-17T11:14:04.762Z,352
2017-02-17T11:15:13.804Z,376
2017-02-17T11:16:22.811Z,352
2017-02-17T11:17:31.823Z,320
2017-02-17T11:18:40.838Z,312
2017-02-17T11:19:49.859Z,328
2017-02-17T11:20:58.898Z,324
2017-02-17T11:22:07.924Z,320
2017-02-17T11:23:16.945Z,368
2017-02-17T11:24:26.423Z,352
2017-02-17T11:25:35.460Z,444
2017-02-17T11:26:44.496Z,448
2017-02-17T11:27:53.929Z,564
2017-02-17T11:29:02.947Z,568
2017-02-17T11:30:11.988Z,556
2017-02-17T11:31:20.995Z,520
2017-02-17T11:32:30.005Z,492
2017-02-17T11:33:39.019Z,572
2017-02-17T11:34:48.044Z,656
2017-02-17T11:35:57.061Z,808
2017-02-17T11:37:06.087Z,792
2017-02-17T11:38:15.098Z,728
2017-02-17T11:39:24.127Z,624
2017-02-17T11:40:33.140Z,508
2017-02-17T11:41:42.171Z,512
2017-02-17T11:42:51.198Z,568
2017-02-17T11:44:00.219Z,572
2017-02-17T11:45:09.239Z,552
2017-02-17T11:46:18.269Z,584
2017-02-17T11:47:27.294Z,512
2017-02-17T11:48:36.311Z,600
2017-02-17T11:49:45.330Z,688
2017-02-17T11:50:54.370Z,824
2017-02-17T11:52:03.392Z,848
2017-02-17T11:53:12.422Z,1024
2017-02-17T11:54:21.441Z,1000
2017-02-17T11:55:30.489Z,884
2017-02-17T11:56:39.937Z,788
2017-02-17T11:57:48.986Z,600
2017-02-17T11:58:58.011Z,528
2017-02-17T12:00:07.449Z,516
2017-02-17T12:01:16.465Z,580
2017-02-17T12:02:25.494Z,652
2017-02-17T12:03:34.688Z,660
2017-02-17T12:04:43.712Z,512
2017-02-17T12:05:52.749Z,380
2017-02-17T12:07:01.789Z,384
2017-02-17T12:08:11.215Z,292
2017-02-17T12:09:20.238Z,504
2017-02-17T12:10:29.257Z,572
2017-02-17T12:11:39.113Z,680
2017-02-17T12:12:48.143Z,788
2017-02-17T12:13:57.151Z,748
2017-02-17T12:15:06.253Z,748
2017-02-17T12:16:15.269Z,716
2017-02-17T12:17:24.296Z,736
2017-02-17T12:18:33.335Z,888
2017-02-17T12:19:42.343Z,872
2017-02-17T12:20:51.362Z,904
2017-02-17T12:22:00.390Z,872
2017-02-17T12:23:09.409Z,900
2017-02-17T12:24:18.451Z,1100
2017-02-17T12:25:27.455Z,1112
2017-02-17T12:26:36.496Z,1136
2017-02-17T12:27:45.531Z,1188
2017-02-17T12:28:54.555Z,1156
2017-02-17T12:30:03.561Z,1204
2017-02-17T12:31:12.581Z,1284
2017-02-17T12:32:21.595Z,1456
2017-02-17T12:33:30.610Z,1568
2017-02-17T12:34:39.640Z,1720
2017-02-17T12:35:48.648Z,1716
2017-02-17T12:36:57.671Z,1320
2017-02-17T12:38:06.678Z,1048
2017-02-17T12:39:15.713Z,968
2017-02-17T12:40:24.733Z,800
2017-02-17T12:41:33.748Z,704
2017-02-17T12:42:42.764Z,636
2017-02-17T12:43:52.184Z,448
2017-02-17T12:45:01.235Z,352
2017-02-17T12:46:10.671Z,356
2017-02-17T12:47:19.708Z,348
2017-02-17T12:48:28.724Z,388
2017-02-17T12:49:37.750Z,256
2017-02-17T12:50:46.768Z,288
2017-02-17T12:51:55.805Z,316
2017-02-17T12:53:04.818Z,424
2017-02-17T12:54:13.832Z,504
2017-02-17T12:55:22.860Z,448
2017-02-17T12:56:31.892Z,412
2017-02-17T12:57:40.908Z,380
2017-02-17T12:58:49.915Z,440
2017-02-17T12:59:58.922Z,380
2017-02-17T13:01:08.363Z,300
2017-02-17T13:02:17.372Z,356
2017-02-17T13:03:27.207Z,344
2017-02-17T13:04:36.249Z,364
2017-02-17T13:05:45.265Z,372
2017-02-17T13:06:54.276Z,372
2017-02-17T13:08:03.296Z,724
2017-02-17T13:09:12.324Z,928
2017-02-17T13:10:21.352Z,1072
2017-02-17T13:11:30.776Z,1116
2017-02-17T13:12:39.797Z,996
2017-02-17T13:13:48.823Z,1108
2017-02-17T13:14:57.833Z,800
2017-02-17T13:16:06.865Z,560
2017-02-17T13:17:16.285Z,424
2017-02-17T13:18:25.344Z,376
2017-02-17T13:19:34.384Z,276
2017-02-17T13:20:43.397Z,324
2017-02-17T13:21:52.402Z,304
2017-02-17T13:23:01.418Z,324
2017-02-17T13:24:10.443Z,272
2017-02-17T13:25:19.458Z,256
2017-02-17T13:26:28.461Z,252
2017-02-17T13:27:37.481Z,244
2017-02-17T13:28:46.500Z,208
2017-02-17T13:29:55.511Z,212
2017-02-17T13:31:04.519Z,216
2017-02-17T13:32:13.524Z,180
2017-02-17T13:33:22.961Z,236
2017-02-17T13:34:31.994Z,276
2017-02-17T13:35:41.033Z,228
2017-02-17T13:36:50.495Z,196
2017-02-17T13:37:59.535Z,192
2017-02-17T13:39:08.550Z,208
2017-02-17T13:40:17.586Z,208
2017-02-17T13:41:26.615Z,192
2017-02-17T13:42:35.650Z,312
2017-02-17T13:43:44.667Z,252
2017-02-17T13:44:53.685Z,304
2017-02-17T13:46:03.109Z,328
2017-02-17T13:47:12.568Z,340
2017-02-17T13:48:21.607Z,288
2017-02-17T13:49:30.636Z,256
2017-02-17T13:50:40.082Z,256
2017-02-17T13:51:49.126Z,340
2017-02-17T13:52:58.141Z,388
2017-02-17T13:54:07.174Z,460
2017-02-17T13:55:16.183Z,432
2017-02-17T13:56:25.177Z,384
2017-02-17T13:57:34.191Z,348
2017-02-17T13:58:43.631Z,356
2017-02-17T13:59:52.676Z,352
2017-02-17T14:01:01.699Z,308
2017-02-17T14:02:10.704Z,380
2017-02-17T14:03:19.730Z,408
2017-02-17T14:04:28.745Z,328
2017-02-17T14:05:37.756Z,264
2017-02-17T14:06:46.754Z,252
2017-02-17T14:07:55.797Z,224
2017-02-17T14:09:04.800Z,196
2017-02-17T14:10:13.853Z,156
2017-02-17T14:11:22.900Z,168
2017-02-17T14:12:31.950Z,148
2017-02-17T14:13:40.978Z,152
2017-02-17T14:14:50.001Z,188
2017-02-17T14:15:59.011Z,180
2017-02-17T14:17:08.018Z,156
2017-02-17T14:18:17.037Z,164
2017-02-17T14:19:26.057Z,152
2017-02-17T14:20:35.088Z,168
2017-02-17T14:21:44.525Z,164
2017-02-17T14:22:53.565Z,136
2017-02-17T14:24:02.602Z,120
2017-02-17T14:25:11.604Z,100
2017-02-17T14:26:20.615Z,88
2017-02-17T14:27:30.053Z,96
2017-02-17T14:28:39.072Z,100
2017-02-17T14:29:48.496Z,108
2017-02-17T14:30:57.519Z,116
2017-02-17T14:32:06.562Z,120
2017-02-17T14:33:15.573Z,128
2017-02-17T14:34:24.586Z,92
2017-02-17T14:35:33.611Z,92
2017-02-17T14:36:42.640Z,100
2017-02-17T14:37:51.648Z,92
2017-02-17T14:39:00.672Z,108
2017-02-17T14:40:09.712Z,120
2017-02-17T14:41:18.712Z,144
2017-02-17T14:42:27.735Z,120
2017-02-17T14:43:37.174Z,120
2017-02-17T14:44:46.179Z,156
2017-02-17T14:45:55.195Z,152
2017-02-17T14:47:04.208Z,164
2017-02-17T14:48:13.208Z,148
2017-02-17T14:49:22.231Z,120
2017-02-17T14:50:31.289Z,152
2017-02-17T14:51:40.292Z,136
2017-02-17T14:52:49.743Z,152
2017-02-17T14:53:58.739Z,172
2017-02-17T14:55:07.775Z,160
2017-02-17T14:56:16.796Z,172
2017-02-17T14:57:25.809Z,180
2017-02-17T14:58:34.826Z,148
2017-02-17T14:59:43.835Z,116
2017-02-17T15:00:52.841Z,108
2017-02-17T15:02:02.274Z,160
2017-02-17T15:03:11.302Z,168
2017-02-17T15:04:20.341Z,188
2017-02-17T15:05:29.362Z,188
2017-02-17T15:06:38.822Z,160
2017-02-17T15:07:48.264Z,144
2017-02-17T15:08:57.283Z,136
2017-02-17T15:10:06.294Z,132
2017-02-17T15:11:15.598Z,116
2017-02-17T15:12:24.696Z,96
2017-02-17T15:13:33.730Z,72
2017-02-17T15:14:42.742Z,64
2017-02-17T15:15:51.757Z,72
2017-02-17T15:17:00.810Z,76
2017-02-17T15:18:09.865Z,64
2017-02-17T15:19:19.744Z,80
2017-02-17T15:20:28.749Z,84
2017-02-17T15:21:38.196Z,76
2017-02-17T15:22:47.222Z,76
2017-02-17T15:23:56.259Z,72
2017-02-17T15:25:05.292Z,84
2017-02-17T15:26:14.300Z,96
2017-02-17T15:27:23.337Z,96
2017-02-17T15:28:33.847Z,96
2017-02-17T15:29:43.663Z,100
2017-02-17T15:30:53.033Z,136
2017-02-17T15:32:02.222Z,152
2017-02-17T15:33:11.239Z,144
2017-02-17T15:34:20.273Z,180
2017-02-17T15:35:29.312Z,188
2017-02-17T15:36:38.707Z,212
2017-02-17T15:37:48.389Z,152
2017-02-17T15:38:57.518Z,144
2017-02-17T15:40:06.847Z,140
2017-02-17T15:41:15.877Z,116
2017-02-17T15:42:24.920Z,88
2017-02-17T15:43:34.708Z,84
2017-02-17T15:44:43.831Z,68
2017-02-17T15:45:52.861Z,56
2017-02-17T15:47:02.375Z,56
2017-02-17T15:48:11.631Z,68
2017-02-17T15:49:20.685Z,76
2017-02-17T15:50:29.927Z,72
2017-02-17T15:51:39.214Z,80
2017-02-17T15:52:48.376Z,68
2017-02-17T15:53:57.842Z,68
2017-02-17T15:55:06.874Z,52
2017-02-17T15:56:15.930Z,64
2017-02-17T15:57:24.961Z,64
2017-02-17T15:58:33.982Z,64
2017-02-17T15:59:43.467Z,68
2017-02-17T16:00:52.537Z,44
2017-02-17T16:02:01.626Z,36
2017-02-17T16:03:11.865Z,32
2017-02-17T16:04:20.878Z,20
2017-02-17T16:05:29.903Z,24
2017-02-17T16:06:38.921Z,28
2017-02-17T16:07:48.359Z,28
2017-02-17T16:08:57.406Z,28
2017-02-17T16:10:06.429Z,28
2017-02-17T16:11:15.439Z,28
2017-02-17T16:12:24.468Z,24
2017-02-17T16:13:33.487Z,20
2017-02-17T16:14:42.516Z,20
2017-02-17T16:15:52.391Z,24
2017-02-17T16:17:01.534Z,20
2017-02-17T16:18:10.554Z,20
2017-02-17T16:19:20.203Z,16